createdAt,value
2022-07-28T00:01:36.753Z,18.30
2022-07-28T00:04:25.351Z,18.30
2022-07-28T00:07:15.221Z,18.30
2022-07-28T00:10:03.886Z,18.20
2022-07-28T00:12:52.524Z,18.10
2022-07-28T00:15:41.029Z,18.20
2022-07-28T00:18:29.576Z,18.00
2022-07-28T00:21:18.501Z,18.00
2022-07-28T00:24:09.098Z,17.80
2022-07-28T00:26:57.801Z,18.00
2022-07-28T00:29:50.531Z,18.00
2022-07-28T00:32:39.727Z,18.10
2022-07-28T00:35:31.226Z,18.10
2022-07-28T00:38:20.515Z,18.10
2022-07-28T00:41:13.902Z,18.00
2022-07-28T00:44:02.860Z,17.90
2022-07-28T00:46:51.443Z,17.90
2022-07-28T00:49:40.629Z,17.80
2022-07-28T00:52:29.621Z,17.70
2022-07-28T00:55:18.739Z,17.80
2022-07-28T00:58:08.829Z,17.80
2022-07-28T01:00:57.845Z,17.60
2022-07-28T01:03:48.261Z,17.80
2022-07-28T01:06:50.215Z,17.70
2022-07-28T01:09:52.518Z,17.60
2022-07-28T01:12:52.179Z,17.50
2022-07-28T01:15:50.126Z,17.60
2022-07-28T01:18:48.960Z,17.50
2022-07-28T01:21:40.828Z,17.40
2022-07-28T01:24:32.554Z,17.40
2022-07-28T01:27:37.096Z,17.40
2022-07-28T01:30:36.584Z,17.30
2022-07-28T01:33:34.060Z,17.30
2022-07-28T01:36:27.619Z,17.30
2022-07-28T01:39:17.603Z,17.30
2022-07-28T01:42:08.634Z,17.20
2022-07-28T01:45:00.500Z,17.10
2022-07-28T01:47:52.683Z,17.20
2022-07-28T01:50:45.319Z,17.10
2022-07-28T01:53:38.347Z,17.10
2022-07-28T01:56:29.510Z,17.00
2022-07-28T01:59:19.837Z,16.90
2022-07-28T02:02:10.188Z,17.00
2022-07-28T02:05:02.095Z,17.00
2022-07-28T02:07:52.272Z,17.00
2022-07-28T02:10:43.768Z,16.90
2022-07-28T02:13:34.207Z,16.80
2022-07-28T02:16:26.116Z,16.80
2022-07-28T02:19:16.030Z,16.70
2022-07-28T02:22:07.908Z,16.70
2022-07-28T02:24:57.094Z,16.80
2022-07-28T02:27:50.491Z,16.70
2022-07-28T02:30:42.846Z,16.80
2022-07-28T02:33:59.210Z,16.90
2022-07-28T02:36:48.479Z,16.60
2022-07-28T02:39:45.484Z,16.50
2022-07-28T02:42:49.951Z,16.60
2022-07-28T02:45:42.855Z,16.50
2022-07-28T02:48:37.066Z,16.50
2022-07-28T02:51:29.648Z,16.40
2022-07-28T02:54:21.041Z,16.40
2022-07-28T02:57:13.619Z,16.50
2022-07-28T03:00:03.134Z,16.50
2022-07-28T03:02:52.935Z,16.40
2022-07-28T03:05:42.321Z,16.30
2022-07-28T03:08:31.161Z,16.40
2022-07-28T03:11:19.641Z,16.30
2022-07-28T03:14:09.742Z,16.30
2022-07-28T03:16:58.631Z,16.20
2022-07-28T03:19:47.406Z,16.10
2022-07-28T03:22:36.101Z,16.20
2022-07-28T03:25:28.810Z,16.20
2022-07-28T03:28:21.134Z,16.20
2022-07-28T03:31:13.477Z,16.20
2022-07-28T03:34:02.543Z,16.30
2022-07-28T03:36:57.499Z,16.30
2022-07-28T03:39:48.891Z,16.50
2022-07-28T03:42:39.001Z,16.40
2022-07-28T03:45:28.160Z,16.40
2022-07-28T03:48:18.432Z,16.30
2022-07-28T03:51:06.999Z,16.50
2022-07-28T03:53:55.550Z,16.60
2022-07-28T03:56:44.076Z,16.60
2022-07-28T03:59:32.796Z,16.60
2022-07-28T04:02:21.629Z,16.70
2022-07-28T04:05:13.008Z,16.60
2022-07-28T04:08:04.806Z,16.60
2022-07-28T04:10:53.845Z,16.60
2022-07-28T04:13:42.998Z,16.70
2022-07-28T04:16:31.711Z,16.70
2022-07-28T04:19:20.239Z,16.90
2022-07-28T04:22:10.269Z,16.90
2022-07-28T04:24:58.823Z,17.00
2022-07-28T04:27:47.576Z,16.90
2022-07-28T04:30:39.071Z,17.00
2022-07-28T04:33:33.020Z,17.00
2022-07-28T04:36:21.617Z,17.10
2022-07-28T04:39:12.247Z,17.20
2022-07-28T04:42:00.876Z,17.30
2022-07-28T04:44:49.524Z,17.40
2022-07-28T04:47:38.082Z,17.40
2022-07-28T04:50:26.774Z,17.50
2022-07-28T04:53:21.483Z,17.60
2022-07-28T04:56:11.508Z,17.60
2022-07-28T04:59:01.717Z,17.70
2022-07-28T05:01:52.629Z,17.80
2022-07-28T05:04:41.676Z,17.90
2022-07-28T05:07:30.379Z,18.00
2022-07-28T05:10:18.995Z,18.00
2022-07-28T05:13:09.002Z,18.20
2022-07-28T05:15:57.529Z,18.20
2022-07-28T05:18:46.090Z,18.30
2022-07-28T05:21:34.759Z,18.50
2022-07-28T05:24:23.470Z,18.60
2022-07-28T05:27:12.747Z,18.70
2022-07-28T05:30:03.062Z,18.80
2022-07-28T05:32:53.948Z,18.90
2022-07-28T05:35:42.600Z,19.10
2022-07-28T05:38:32.473Z,19.20
2022-07-28T05:41:21.112Z,19.60
2022-07-28T05:44:09.637Z,19.90
2022-07-28T05:46:59.848Z,19.70
2022-07-28T05:49:48.375Z,19.50
2022-07-28T05:52:37.857Z,19.60
2022-07-28T05:55:27.068Z,19.70
2022-07-28T05:58:15.793Z,19.70
2022-07-28T06:01:05.263Z,20.30
2022-07-28T06:04:10.101Z,21.40
2022-07-28T06:07:04.134Z,22.00
2022-07-28T06:09:54.019Z,22.10
2022-07-28T06:12:43.244Z,21.80
2022-07-28T06:15:31.874Z,22.50
2022-07-28T06:18:20.695Z,21.60
2022-07-28T06:21:11.187Z,21.30
2022-07-28T06:23:59.980Z,21.00
2022-07-28T06:26:48.560Z,20.80
2022-07-28T06:29:37.325Z,20.90
2022-07-28T06:32:25.933Z,20.80
2022-07-28T06:35:16.699Z,20.80
2022-07-28T06:38:06.814Z,20.80
2022-07-28T06:40:55.388Z,20.80
2022-07-28T06:43:44.000Z,21.00
2022-07-28T06:46:32.648Z,21.00
2022-07-28T06:49:21.546Z,21.00
2022-07-28T06:52:10.251Z,21.00
2022-07-28T06:55:00.785Z,21.00
2022-07-28T06:57:51.093Z,21.10
2022-07-28T07:00:39.776Z,21.20
2022-07-28T07:03:28.544Z,21.30
2022-07-28T07:06:17.141Z,21.30
2022-07-28T07:09:05.902Z,21.40
2022-07-28T07:11:56.638Z,21.60
2022-07-28T07:14:48.696Z,21.70
2022-07-28T07:17:37.708Z,21.90
2022-07-28T07:20:26.557Z,21.90
2022-07-28T07:23:15.642Z,22.00
2022-07-28T07:26:04.555Z,22.20
2022-07-28T07:28:54.601Z,22.20
2022-07-28T07:31:43.210Z,22.60
2022-07-28T07:34:31.772Z,22.80
2022-07-28T07:37:21.352Z,23.00
2022-07-28T07:40:10.632Z,23.20
2022-07-28T07:42:59.359Z,23.50
2022-07-28T07:45:49.267Z,23.80
2022-07-28T07:48:37.900Z,24.00
2022-07-28T07:51:26.618Z,24.20
2022-07-28T07:54:15.370Z,24.60
2022-07-28T07:57:04.251Z,24.90
2022-07-28T07:59:53.005Z,25.30
2022-07-28T08:02:43.613Z,25.80
2022-07-28T08:05:35.574Z,26.00
2022-07-28T08:08:24.962Z,26.50
2022-07-28T08:11:13.845Z,26.90
2022-07-28T08:14:02.704Z,27.30
2022-07-28T08:16:51.316Z,27.30
2022-07-28T08:19:41.565Z,27.50
2022-07-28T08:22:30.427Z,27.70
2022-07-28T08:25:20.754Z,28.00
2022-07-28T08:28:09.693Z,28.40
2022-07-28T08:30:58.412Z,28.50
2022-07-28T08:33:54.383Z,28.80
2022-07-28T08:36:44.830Z,28.80
2022-07-28T08:39:34.964Z,28.40
2022-07-28T08:42:32.612Z,28.70
2022-07-28T08:45:23.155Z,29.00
2022-07-28T08:48:13.280Z,29.50
2022-07-28T08:51:04.116Z,29.90
2022-07-28T08:53:54.984Z,30.40
2022-07-28T08:56:48.251Z,30.70
2022-07-28T08:59:37.877Z,30.60
2022-07-28T09:02:29.039Z,31.00
2022-07-28T09:05:20.827Z,31.80
2022-07-28T09:08:09.494Z,32.60
2022-07-28T09:10:59.630Z,33.30
2022-07-28T09:13:53.594Z,34.10
2022-07-28T09:16:42.640Z,34.10
2022-07-28T09:19:34.445Z,34.70
2022-07-28T09:22:24.572Z,35.00
2022-07-28T09:25:19.722Z,35.70
2022-07-28T09:28:12.839Z,35.80
2022-07-28T09:31:09.585Z,35.50
2022-07-28T09:34:01.725Z,36.00
2022-07-28T09:36:50.655Z,36.00
2022-07-28T09:39:39.433Z,36.10
2022-07-28T09:42:45.869Z,36.10
2022-07-28T09:45:36.033Z,36.60
2022-07-28T09:48:24.888Z,36.70
2022-07-28T09:51:15.075Z,37.00
2022-07-28T09:54:14.323Z,37.00
2022-07-28T09:57:03.604Z,36.70
2022-07-28T09:59:55.591Z,36.90
2022-07-28T10:02:51.269Z,36.10
2022-07-28T10:05:43.568Z,36.90
2022-07-28T10:08:43.776Z,36.80
2022-07-28T10:11:35.374Z,35.90
2022-07-28T10:14:33.689Z,34.60
2022-07-28T10:17:28.487Z,34.00
2022-07-28T10:20:18.356Z,33.50
2022-07-28T10:23:11.677Z,33.60
2022-07-28T10:26:01.874Z,33.90
2022-07-28T10:28:52.606Z,34.40
2022-07-28T10:31:49.960Z,35.30
2022-07-28T10:34:44.999Z,35.70
2022-07-28T10:37:40.129Z,35.90
2022-07-28T10:40:33.054Z,35.10
2022-07-28T10:43:22.237Z,35.10
2022-07-28T10:46:16.083Z,35.40
2022-07-28T10:49:05.695Z,36.20
2022-07-28T10:52:19.775Z,36.00
2022-07-28T10:55:20.492Z,36.40
2022-07-28T10:58:25.028Z,36.30
2022-07-28T11:01:48.629Z,36.60
2022-07-28T11:04:55.513Z,41.40
2022-07-28T11:07:45.122Z,46.10
2022-07-28T11:10:47.122Z,48.10
2022-07-28T11:13:37.058Z,49.30
2022-07-28T11:16:36.607Z,49.30
2022-07-28T11:19:46.951Z,50.00
2022-07-28T11:22:35.132Z,50.20
2022-07-28T11:25:23.804Z,50.30
2022-07-28T11:28:13.743Z,49.70
2022-07-28T11:31:02.442Z,49.50
2022-07-28T11:33:57.510Z,50.10
2022-07-28T11:37:01.538Z,51.30
2022-07-28T11:39:50.069Z,50.10
2022-07-28T11:42:38.811Z,48.00
2022-07-28T11:45:37.796Z,43.30
2022-07-28T11:48:30.124Z,45.20
2022-07-28T11:51:19.664Z,40.20
2022-07-28T11:54:17.769Z,45.00
2022-07-28T11:57:09.821Z,48.40
2022-07-28T12:00:03.820Z,49.00
2022-07-28T12:02:56.639Z,49.70
2022-07-28T12:05:58.113Z,49.70
2022-07-28T12:08:54.381Z,49.60
2022-07-28T12:14:46.380Z,48.80
2022-07-28T12:17:35.529Z,48.40
2022-07-28T12:20:31.714Z,45.80
2022-07-28T12:23:39.084Z,45.10
2022-07-28T12:26:40.732Z,42.70
2022-07-28T12:29:32.203Z,42.90
2022-07-28T12:32:31.968Z,40.10
2022-07-28T12:35:21.243Z,36.10
2022-07-28T12:38:11.369Z,33.90
2022-07-28T12:41:00.165Z,32.80
2022-07-28T12:43:52.894Z,32.50
2022-07-28T12:46:48.782Z,30.90
2022-07-28T12:49:38.196Z,30.10
2022-07-28T12:52:27.181Z,29.70
2022-07-28T12:55:25.517Z,29.40
2022-07-28T12:58:25.469Z,29.80
2022-07-28T13:01:15.378Z,29.80
2022-07-28T13:04:03.989Z,29.10
2022-07-28T13:07:10.648Z,29.10
2022-07-28T13:10:04.278Z,28.80
2022-07-28T13:13:02.180Z,28.90
2022-07-28T13:16:12.049Z,29.00
2022-07-28T13:19:04.521Z,28.80
2022-07-28T13:22:00.773Z,28.70
2022-07-28T13:24:54.352Z,28.30
2022-07-28T13:27:43.263Z,28.20
2022-07-28T13:30:31.996Z,28.00
2022-07-28T13:33:20.816Z,28.20
2022-07-28T13:36:10.628Z,28.40
2022-07-28T13:38:59.719Z,28.10
2022-07-28T13:41:57.559Z,28.00
2022-07-28T13:44:47.630Z,27.70
2022-07-28T13:47:38.934Z,27.90
2022-07-28T13:50:28.203Z,27.60
2022-07-28T13:53:16.798Z,28.10
2022-07-28T13:56:06.547Z,27.80
2022-07-28T13:58:56.482Z,27.80
2022-07-28T14:01:49.444Z,27.80
2022-07-28T14:04:38.935Z,27.60
2022-07-28T14:07:28.572Z,27.60
2022-07-28T14:10:18.180Z,27.50
2022-07-28T14:13:06.768Z,27.20
2022-07-28T14:16:02.506Z,26.90
2022-07-28T14:18:55.509Z,27.10
2022-07-28T14:21:45.969Z,27.30
2022-07-28T14:24:34.926Z,27.10
2022-07-28T14:27:28.934Z,27.00
2022-07-28T14:30:17.858Z,27.10
2022-07-28T14:33:07.820Z,26.90
2022-07-28T14:35:56.770Z,26.80
2022-07-28T14:38:54.676Z,26.80
2022-07-28T14:41:44.385Z,26.70
2022-07-28T14:44:33.182Z,26.80
2022-07-28T14:47:22.382Z,26.80
2022-07-28T14:50:13.561Z,26.60
2022-07-28T14:53:02.978Z,26.40
2022-07-28T14:55:51.481Z,26.50
2022-07-28T14:58:49.069Z,26.50
2022-07-28T15:01:37.774Z,26.40
2022-07-28T15:04:26.672Z,26.30
2022-07-28T15:07:16.615Z,26.20
2022-07-28T15:10:06.110Z,26.00
2022-07-28T15:12:55.522Z,26.00
2022-07-28T15:15:44.898Z,25.60
2022-07-28T15:18:33.880Z,25.80
2022-07-28T15:21:22.827Z,25.90
2022-07-28T15:24:13.337Z,25.70
2022-07-28T15:27:03.156Z,26.00
2022-07-28T15:29:52.333Z,26.20
2022-07-28T15:32:55.772Z,26.20
2022-07-28T15:35:58.077Z,26.10
2022-07-28T15:38:49.025Z,26.00
2022-07-28T15:41:42.263Z,26.00
2022-07-28T15:44:31.209Z,26.00
2022-07-28T15:47:19.736Z,25.90
2022-07-28T15:50:08.765Z,25.70
2022-07-28T15:52:57.419Z,25.40
2022-07-28T15:55:50.817Z,25.30
2022-07-28T15:58:41.297Z,25.30
2022-07-28T16:01:30.414Z,25.30
2022-07-28T16:04:19.343Z,25.30
2022-07-28T16:07:24.408Z,25.20
2022-07-28T16:10:13.241Z,25.30
2022-07-28T16:13:01.969Z,25.30
2022-07-28T16:15:52.915Z,25.10
2022-07-28T16:18:43.769Z,25.00
2022-07-28T16:21:32.414Z,25.10
2022-07-28T16:24:21.681Z,25.10
2022-07-28T16:27:11.021Z,24.90
2022-07-28T16:29:59.685Z,24.80
2022-07-28T16:32:51.801Z,24.70
2022-07-28T16:35:40.344Z,24.70
2022-07-28T16:38:28.958Z,24.70
2022-07-28T16:41:17.536Z,24.80
2022-07-28T16:44:06.554Z,24.80
2022-07-28T16:46:55.190Z,24.80
2022-07-28T16:49:46.388Z,24.70
2022-07-28T16:52:35.259Z,24.90
2022-07-28T16:55:25.048Z,24.70
2022-07-28T16:58:13.606Z,24.60
2022-07-28T17:01:02.149Z,24.50
2022-07-28T17:03:50.781Z,24.40
2022-07-28T17:06:40.896Z,24.50
2022-07-28T17:09:29.921Z,24.40
2022-07-28T17:12:18.479Z,24.40
2022-07-28T17:15:19.960Z,24.40
2022-07-28T17:18:12.401Z,24.30
2022-07-28T17:21:01.625Z,24.30
2022-07-28T17:23:51.633Z,24.20
2022-07-28T17:29:49.406Z,24.10
2022-07-28T17:32:37.912Z,24.00
2022-07-28T17:35:34.719Z,23.90
2022-07-28T17:38:28.270Z,23.80
2022-07-28T17:41:22.627Z,23.90
2022-07-28T17:44:11.210Z,23.80
2022-07-28T17:46:59.867Z,23.70
2022-07-28T17:49:48.475Z,23.70
2022-07-28T17:52:37.047Z,23.60
2022-07-28T17:55:55.961Z,23.50
2022-07-28T17:58:47.611Z,23.50
2022-07-28T18:01:36.431Z,23.50
2022-07-28T18:04:25.124Z,23.40
2022-07-28T18:07:13.947Z,23.30
2022-07-28T18:10:03.380Z,23.30
2022-07-28T18:12:51.973Z,23.20
2022-07-28T18:15:43.170Z,23.20
2022-07-28T18:18:31.686Z,23.10
2022-07-28T18:21:20.280Z,23.10
2022-07-28T18:24:09.174Z,23.00
2022-07-28T18:26:58.126Z,22.90
2022-07-28T18:29:46.814Z,22.80
2022-07-28T18:32:38.229Z,22.80
2022-07-28T18:35:26.991Z,22.70
2022-07-28T18:38:15.670Z,22.60
2022-07-28T18:41:04.874Z,22.60
2022-07-28T18:43:53.566Z,22.50
2022-07-28T18:46:42.251Z,22.50
2022-07-28T18:49:37.204Z,22.40
2022-07-28T18:52:26.276Z,22.40
2022-07-28T18:55:14.894Z,22.30
2022-07-28T18:58:03.924Z,22.30
2022-07-28T19:00:52.517Z,22.20
2022-07-28T19:03:41.054Z,22.20
2022-07-28T19:06:31.502Z,22.20
2022-07-28T19:09:20.239Z,22.10
2022-07-28T19:12:09.612Z,22.00
2022-07-28T19:14:58.984Z,21.90
2022-07-28T19:17:47.540Z,21.90
2022-07-28T19:20:56.112Z,21.80
2022-07-28T19:23:46.589Z,21.80
2022-07-28T19:26:35.695Z,21.70
2022-07-28T19:29:25.309Z,21.70
2022-07-28T19:32:14.011Z,21.70
2022-07-28T19:35:04.032Z,21.60
2022-07-28T19:37:52.735Z,21.60
2022-07-28T19:40:43.447Z,21.60
2022-07-28T19:43:32.312Z,21.50
2022-07-28T19:46:21.042Z,21.50
2022-07-28T19:49:12.107Z,21.50
2022-07-28T19:52:01.122Z,21.40
2022-07-28T19:54:51.431Z,21.40
2022-07-28T19:57:42.513Z,21.40
2022-07-28T20:00:31.354Z,21.30
2022-07-28T20:04:04.145Z,21.30
2022-07-28T20:06:29.842Z,21.30
2022-07-28T20:09:20.395Z,21.30
2022-07-28T20:12:09.333Z,21.20
2022-07-28T20:15:00.803Z,21.20
2022-07-28T20:17:49.357Z,21.10
2022-07-28T20:20:37.844Z,21.00
2022-07-28T20:23:26.406Z,21.00
2022-07-28T20:26:15.331Z,21.00
2022-07-28T20:29:05.968Z,20.90
2022-07-28T20:31:56.134Z,20.90
2022-07-28T20:34:45.093Z,20.90
2022-07-28T20:37:36.068Z,20.90
2022-07-28T20:40:26.169Z,20.80
2022-07-28T20:43:14.932Z,20.80
2022-07-28T20:46:03.717Z,20.70
2022-07-28T20:48:53.774Z,20.70
2022-07-28T20:51:45.260Z,20.70
2022-07-28T20:54:39.373Z,20.70
2022-07-28T20:57:28.155Z,20.70
2022-07-28T21:00:17.766Z,20.60
2022-07-28T21:03:06.888Z,20.60
2022-07-28T21:05:57.002Z,20.50
2022-07-28T21:08:45.816Z,20.50
2022-07-28T21:11:34.931Z,20.40
2022-07-28T21:14:24.263Z,20.40
2022-07-28T21:17:13.158Z,20.40
2022-07-28T21:20:01.842Z,20.30
2022-07-28T21:22:51.984Z,20.20
2022-07-28T21:25:40.493Z,20.20
2022-07-28T21:28:51.406Z,20.20
2022-07-28T21:32:02.326Z,20.20
2022-07-28T21:34:48.884Z,20.10
2022-07-28T21:37:37.401Z,20.10
2022-07-28T21:40:31.335Z,20.10
2022-07-28T21:43:19.814Z,20.00
2022-07-28T21:46:08.466Z,20.00
2022-07-28T21:48:58.540Z,20.00
2022-07-28T21:51:47.540Z,20.00
2022-07-28T21:54:36.598Z,20.00
2022-07-28T21:57:26.485Z,19.90
2022-07-28T22:00:17.523Z,19.80
2022-07-28T22:03:06.190Z,19.80
2022-07-28T22:05:58.220Z,19.70
2022-07-28T22:08:50.325Z,19.60
2022-07-28T22:11:38.810Z,19.50
2022-07-28T22:14:32.452Z,19.50
2022-07-28T22:17:20.957Z,19.40
2022-07-28T22:20:11.282Z,19.40
2022-07-28T22:22:59.814Z,19.40
2022-07-28T22:25:48.408Z,19.30
2022-07-28T22:28:39.059Z,19.30
2022-07-28T22:31:29.058Z,19.30
2022-07-28T22:34:17.973Z,19.40
2022-07-28T22:37:12.879Z,19.30
2022-07-28T22:40:01.771Z,19.20
2022-07-28T22:42:50.290Z,19.20
2022-07-28T22:45:49.756Z,19.00
2022-07-28T22:48:41.535Z,19.00
2022-07-28T22:51:30.125Z,19.00
2022-07-28T22:54:19.019Z,19.00
2022-07-28T22:57:08.084Z,19.00
2022-07-28T22:59:57.056Z,19.10
2022-07-28T23:02:45.648Z,18.90
2022-07-28T23:05:35.525Z,19.00
2022-07-28T23:08:24.103Z,19.00
2022-07-28T23:11:12.609Z,18.90
2022-07-28T23:14:01.258Z,18.80
2022-07-28T23:16:49.990Z,18.80
2022-07-28T23:19:39.192Z,18.70
2022-07-28T23:22:29.547Z,18.60
2022-07-28T23:25:18.010Z,18.70
2022-07-28T23:28:06.836Z,18.60
2022-07-28T23:30:55.450Z,18.60
2022-07-28T23:33:56.186Z,18.60
2022-07-28T23:36:47.753Z,18.50
2022-07-28T23:39:37.582Z,18.50
2022-07-28T23:42:26.097Z,18.50
2022-07-28T23:45:14.940Z,18.50
2022-07-28T23:48:03.487Z,18.50
2022-07-28T23:50:52.207Z,18.40
2022-07-28T23:53:41.752Z,18.40
2022-07-28T23:56:34.902Z,18.30
2022-07-28T23:59:23.868Z,18.30
